createdAt,value
2017-12-22T00:00:49.412Z,63.35
2017-12-22T00:01:51.918Z,63.41
2017-12-22T00:02:54.391Z,63.43
2017-12-22T00:03:56.888Z,63.42
2017-12-22T00:04:59.354Z,63.38
2017-12-22T00:06:01.819Z,63.33
2017-12-22T00:07:04.288Z,63.34
2017-12-22T00:08:06.750Z,63.38
2017-12-22T00:09:09.244Z,63.50
2017-12-22T00:10:11.716Z,63.51
2017-12-22T00:11:14.190Z,63.52
2017-12-22T00:12:16.650Z,63.52
2017-12-22T00:13:19.139Z,63.50
2017-12-22T00:14:21.624Z,63.49
2017-12-22T00:15:24.082Z,63.50
2017-12-22T00:16:26.539Z,63.50
2017-12-22T00:17:29.012Z,63.61
2017-12-22T00:18:31.480Z,63.57
2017-12-22T00:19:33.980Z,63.54
2017-12-22T00:20:36.443Z,63.52
2017-12-22T00:21:38.920Z,63.50
2017-12-22T00:22:41.392Z,63.51
2017-12-22T00:23:43.872Z,63.51
2017-12-22T00:24:46.354Z,63.54
2017-12-22T00:25:48.833Z,63.59
2017-12-22T00:26:51.306Z,63.64
2017-12-22T00:27:53.785Z,63.68
2017-12-22T00:28:56.268Z,63.67
2017-12-22T00:29:58.782Z,63.65
2017-12-22T00:31:01.250Z,63.65
2017-12-22T00:32:03.745Z,63.66
2017-12-22T00:33:06.222Z,63.68
2017-12-22T00:34:08.687Z,63.72
2017-12-22T00:35:11.186Z,63.72
2017-12-22T00:36:13.654Z,63.71
2017-12-22T00:37:16.122Z,63.72
2017-12-22T00:38:18.600Z,63.73
2017-12-22T00:39:21.072Z,63.81
2017-12-22T00:40:23.557Z,64.05
2017-12-22T00:41:26.017Z,64.17
2017-12-22T00:42:28.474Z,64.29
2017-12-22T00:43:30.949Z,64.31
2017-12-22T00:44:33.428Z,64.41
2017-12-22T00:45:35.913Z,64.52
2017-12-22T00:46:38.375Z,64.47
2017-12-22T00:47:40.849Z,64.48
2017-12-22T00:48:43.314Z,64.42
2017-12-22T00:49:45.874Z,64.33
2017-12-22T00:50:48.373Z,64.46
2017-12-22T00:51:50.839Z,64.53
2017-12-22T00:52:53.306Z,64.58
2017-12-22T00:53:55.777Z,64.44
2017-12-22T00:54:58.252Z,64.39
2017-12-22T00:56:00.738Z,64.47
2017-12-22T00:57:03.198Z,64.43
2017-12-22T00:58:05.662Z,64.49
2017-12-22T00:59:08.136Z,64.52
2017-12-22T01:00:10.595Z,64.49
2017-12-22T01:01:13.088Z,64.52
2017-12-22T01:02:15.567Z,64.51
2017-12-22T01:03:18.044Z,64.51
2017-12-22T01:04:20.521Z,64.47
2017-12-22T01:05:22.997Z,64.50
2017-12-22T01:06:25.496Z,64.51
2017-12-22T01:07:27.974Z,64.53
2017-12-22T01:08:30.435Z,64.57
2017-12-22T01:09:32.909Z,64.58
2017-12-22T01:10:35.438Z,64.62
2017-12-22T01:11:37.920Z,64.60
2017-12-22T01:12:40.396Z,64.56
2017-12-22T01:13:43.118Z,64.56
2017-12-22T01:14:45.605Z,64.60
2017-12-22T01:15:53.758Z,64.81
2017-12-22T01:17:01.949Z,64.94
2017-12-22T01:18:10.020Z,65.03
2017-12-22T01:19:19.914Z,65.09
2017-12-22T01:20:22.378Z,64.91
2017-12-22T01:21:24.848Z,64.83
2017-12-22T01:22:27.340Z,64.77
2017-12-22T01:23:29.818Z,64.75
2017-12-22T01:24:32.760Z,64.75
2017-12-22T01:25:35.218Z,64.79
2017-12-22T01:26:37.694Z,64.79
2017-12-22T01:27:40.189Z,64.79
2017-12-22T01:28:42.664Z,64.89
2017-12-22T01:29:45.128Z,64.92
2017-12-22T01:30:47.612Z,64.90
2017-12-22T01:31:50.069Z,64.86
2017-12-22T01:32:52.648Z,64.87
2017-12-22T01:33:55.129Z,64.92
2017-12-22T01:34:57.613Z,64.91
2017-12-22T01:36:00.073Z,64.88
2017-12-22T01:37:02.577Z,64.85
2017-12-22T01:38:05.059Z,64.85
2017-12-22T01:39:07.531Z,64.81
2017-12-22T01:40:10.005Z,64.72
2017-12-22T01:41:12.707Z,64.78
2017-12-22T01:42:15.164Z,64.88
2017-12-22T01:43:17.687Z,64.92
2017-12-22T01:44:20.133Z,64.91
2017-12-22T01:45:22.590Z,64.92
2017-12-22T01:46:25.067Z,64.90
2017-12-22T01:47:27.565Z,64.87
2017-12-22T01:48:30.039Z,64.83
2017-12-22T01:49:32.500Z,64.90
2017-12-22T01:50:34.972Z,65.09
2017-12-22T01:51:37.433Z,65.11
2017-12-22T01:52:39.909Z,65.23
2017-12-22T01:53:42.384Z,65.24
2017-12-22T01:54:44.860Z,65.18
2017-12-22T01:55:47.332Z,65.17
2017-12-22T01:56:49.828Z,65.39
2017-12-22T01:57:52.294Z,65.36
2017-12-22T01:58:54.755Z,65.48
2017-12-22T01:59:57.237Z,65.49
2017-12-22T02:00:59.826Z,65.45
2017-12-22T02:02:02.329Z,65.41
2017-12-22T02:03:04.804Z,65.40
2017-12-22T02:04:07.269Z,65.37
2017-12-22T02:05:09.749Z,65.36
2017-12-22T02:06:12.211Z,65.30
2017-12-22T02:07:14.704Z,65.32
2017-12-22T02:08:17.162Z,65.32
2017-12-22T02:09:19.625Z,65.35
2017-12-22T02:10:22.082Z,65.29
2017-12-22T02:11:24.688Z,65.26
2017-12-22T02:12:27.151Z,65.27
2017-12-22T02:13:29.614Z,65.33
2017-12-22T02:14:32.074Z,65.63
2017-12-22T02:15:34.643Z,65.68
2017-12-22T02:16:37.106Z,65.60
2017-12-22T02:17:39.565Z,65.47
2017-12-22T02:18:42.045Z,65.46
2017-12-22T02:19:44.507Z,65.43
2017-12-22T02:20:46.983Z,65.43
2017-12-22T02:21:49.589Z,65.42
2017-12-22T02:22:52.066Z,65.42
2017-12-22T02:23:55.011Z,65.47
2017-12-22T02:24:57.478Z,65.49
2017-12-22T02:25:59.942Z,65.48
2017-12-22T02:27:02.402Z,65.49
2017-12-22T02:28:04.885Z,65.48
2017-12-22T02:29:07.360Z,65.50
2017-12-22T02:30:09.842Z,65.73
2017-12-22T02:31:12.303Z,65.88
2017-12-22T02:32:14.767Z,65.96
2017-12-22T02:33:17.232Z,66.13
2017-12-22T02:34:19.691Z,65.99
2017-12-22T02:35:22.180Z,65.92
2017-12-22T02:36:24.657Z,66.18
2017-12-22T02:37:27.115Z,66.30
2017-12-22T02:38:29.570Z,66.37
2017-12-22T02:39:32.065Z,66.43
2017-12-22T02:40:34.531Z,66.45
2017-12-22T02:41:37.012Z,66.39
2017-12-22T02:42:39.489Z,66.35
2017-12-22T02:43:41.951Z,66.36
2017-12-22T02:44:44.431Z,66.34
2017-12-22T02:45:46.912Z,66.29
2017-12-22T02:46:49.389Z,66.17
2017-12-22T02:47:51.865Z,66.01
2017-12-22T02:48:54.327Z,65.98
2017-12-22T02:49:56.830Z,66.09
2017-12-22T02:50:59.294Z,66.22
2017-12-22T02:52:01.785Z,66.19
2017-12-22T02:53:04.246Z,66.30
2017-12-22T02:54:06.699Z,66.42
2017-12-22T02:55:09.204Z,66.36
2017-12-22T02:56:11.677Z,66.14
2017-12-22T02:57:14.152Z,66.05
2017-12-22T02:58:16.624Z,66.20
2017-12-22T02:59:19.082Z,66.23
2017-12-22T03:00:21.562Z,66.17
2017-12-22T03:01:24.017Z,66.02
2017-12-22T03:02:26.475Z,66.12
2017-12-22T03:03:28.952Z,66.21
2017-12-22T03:04:31.432Z,66.26
2017-12-22T03:05:33.918Z,66.17
2017-12-22T03:06:36.392Z,66.04
2017-12-22T03:07:38.864Z,65.99
2017-12-22T03:08:41.337Z,65.99
2017-12-22T03:09:43.806Z,65.92
2017-12-22T03:10:46.300Z,65.81
2017-12-22T03:11:48.772Z,65.92
2017-12-22T03:12:51.305Z,65.86
2017-12-22T03:13:53.726Z,65.96
2017-12-22T03:14:56.186Z,66.17
2017-12-22T03:15:58.686Z,66.16
2017-12-22T03:17:01.162Z,66.13
2017-12-22T03:18:03.626Z,66.28
2017-12-22T03:19:06.101Z,66.05
2017-12-22T03:20:08.558Z,65.88
2017-12-22T03:21:11.052Z,65.59
2017-12-22T03:22:13.529Z,65.49
2017-12-22T03:23:16.008Z,65.26
2017-12-22T03:24:18.467Z,65.09
2017-12-22T03:25:20.941Z,64.95
2017-12-22T03:26:23.440Z,64.86
2017-12-22T03:27:25.898Z,64.73
2017-12-22T03:28:28.376Z,64.54
2017-12-22T03:29:30.835Z,64.53
2017-12-22T03:30:33.313Z,64.49
2017-12-22T03:31:35.810Z,64.38
2017-12-22T03:32:38.305Z,64.40
2017-12-22T03:33:40.763Z,64.40
2017-12-22T03:34:43.227Z,64.33
2017-12-22T03:35:45.701Z,64.32
2017-12-22T03:36:48.197Z,64.37
2017-12-22T03:37:50.673Z,64.45
2017-12-22T03:38:53.148Z,64.50
2017-12-22T03:39:55.624Z,64.58
2017-12-22T03:40:58.105Z,64.63
2017-12-22T03:42:00.595Z,64.76
2017-12-22T03:43:03.076Z,64.67
2017-12-22T03:44:05.539Z,64.62
2017-12-22T03:45:08.015Z,64.93
2017-12-22T03:46:10.493Z,65.04
2017-12-22T03:47:12.966Z,65.13
2017-12-22T03:48:15.426Z,65.21
2017-12-22T03:49:17.901Z,65.45
2017-12-22T03:50:20.359Z,65.30
2017-12-22T03:51:22.815Z,65.40
2017-12-22T03:52:25.309Z,65.33
2017-12-22T03:53:27.791Z,65.49
2017-12-22T03:54:30.254Z,65.39
2017-12-22T03:55:32.715Z,65.47
2017-12-22T03:56:35.170Z,65.54
2017-12-22T03:57:38.107Z,65.40
2017-12-22T03:58:40.584Z,65.33
2017-12-22T03:59:43.052Z,65.33
2017-12-22T04:00:45.510Z,65.31
2017-12-22T04:01:47.996Z,65.42
2017-12-22T04:02:50.490Z,65.34
2017-12-22T04:03:53.005Z,65.40
2017-12-22T04:04:55.467Z,65.48
2017-12-22T04:05:57.936Z,65.51
2017-12-22T04:07:00.392Z,65.49
2017-12-22T04:08:02.857Z,65.56
2017-12-22T04:09:05.310Z,65.68
2017-12-22T04:10:07.774Z,65.62
2017-12-22T04:11:10.258Z,65.67
2017-12-22T04:12:12.728Z,65.69
2017-12-22T04:13:15.205Z,65.69
2017-12-22T04:14:17.671Z,65.74
2017-12-22T04:15:20.148Z,65.82
2017-12-22T04:16:22.636Z,65.79
2017-12-22T04:17:25.126Z,65.77
2017-12-22T04:18:27.605Z,65.72
2017-12-22T04:19:30.083Z,65.76
2017-12-22T04:20:32.560Z,65.75
2017-12-22T04:21:35.033Z,65.65
2017-12-22T04:22:37.498Z,65.73
2017-12-22T04:23:39.969Z,65.66
2017-12-22T04:24:42.442Z,65.60
2017-12-22T04:25:44.921Z,65.73
2017-12-22T04:26:47.485Z,65.82
2017-12-22T04:27:49.961Z,65.71
2017-12-22T04:28:52.433Z,65.69
2017-12-22T04:29:54.905Z,65.69
2017-12-22T04:30:57.377Z,65.70
2017-12-22T04:31:59.853Z,65.77
2017-12-22T04:33:02.331Z,65.76
2017-12-22T04:34:04.808Z,65.78
2017-12-22T04:35:07.277Z,65.91
2017-12-22T04:36:09.743Z,65.87
2017-12-22T04:37:12.219Z,65.86
2017-12-22T04:38:14.674Z,65.88
2017-12-22T04:39:17.148Z,65.82
2017-12-22T04:40:19.621Z,65.88
2017-12-22T04:41:22.093Z,65.97
2017-12-22T04:42:24.551Z,65.91
2017-12-22T04:43:27.029Z,65.91
2017-12-22T04:44:29.501Z,66.00
2017-12-22T04:45:31.954Z,66.06
2017-12-22T04:46:34.410Z,66.11
2017-12-22T04:47:36.874Z,66.04
2017-12-22T04:48:39.357Z,66.09
2017-12-22T04:49:41.818Z,66.18
2017-12-22T04:50:44.272Z,66.20
2017-12-22T04:51:46.735Z,66.27
2017-12-22T04:52:49.209Z,66.28
2017-12-22T04:53:51.693Z,66.25
2017-12-22T04:54:54.167Z,66.36
2017-12-22T04:55:56.635Z,66.45
2017-12-22T04:56:59.098Z,66.53
2017-12-22T04:58:01.580Z,66.62
2017-12-22T04:59:04.046Z,66.68
2017-12-22T05:00:06.527Z,66.64
2017-12-22T05:01:09.016Z,66.74
2017-12-22T05:02:11.485Z,66.81
2017-12-22T05:03:13.943Z,66.79
2017-12-22T05:04:16.416Z,66.75
2017-12-22T05:05:18.874Z,66.68
2017-12-22T05:06:21.340Z,66.60
2017-12-22T05:07:23.804Z,66.61
2017-12-22T05:08:26.258Z,66.64
2017-12-22T05:09:28.728Z,66.56
2017-12-22T05:10:31.186Z,66.62
2017-12-22T05:11:33.660Z,66.74
2017-12-22T05:12:36.123Z,66.80
2017-12-22T05:13:38.596Z,66.72
2017-12-22T05:14:41.076Z,66.60
2017-12-22T05:15:43.530Z,66.65
2017-12-22T05:16:46.005Z,66.65
2017-12-22T05:17:48.466Z,66.71
2017-12-22T05:18:50.934Z,66.80
2017-12-22T05:19:53.408Z,66.84
2017-12-22T05:20:55.888Z,66.82
2017-12-22T05:21:58.361Z,67.14
2017-12-22T05:23:00.828Z,66.77
2017-12-22T05:24:03.286Z,66.78
2017-12-22T05:25:05.789Z,66.50
2017-12-22T05:26:08.247Z,66.25
2017-12-22T05:27:10.715Z,66.07
2017-12-22T05:28:13.177Z,66.07
2017-12-22T05:29:15.653Z,65.87
2017-12-22T05:30:18.115Z,64.73
2017-12-22T05:31:20.590Z,65.19
2017-12-22T05:32:23.069Z,65.22
2017-12-22T05:33:25.526Z,65.21
2017-12-22T05:34:28.029Z,65.19
2017-12-22T05:35:30.509Z,65.05
2017-12-22T05:36:32.967Z,65.04
2017-12-22T05:37:35.430Z,65.05
2017-12-22T05:38:37.891Z,64.95
2017-12-22T05:39:40.346Z,65.09
2017-12-22T05:40:42.821Z,65.06
2017-12-22T05:41:45.279Z,65.09
2017-12-22T05:42:47.739Z,65.03
2017-12-22T05:43:50.211Z,65.10
2017-12-22T05:44:52.666Z,65.12
2017-12-22T05:45:55.136Z,65.07
2017-12-22T05:46:57.614Z,65.10
2017-12-22T05:48:00.074Z,65.20
2017-12-22T05:49:02.572Z,65.30
2017-12-22T05:50:05.048Z,65.23
2017-12-22T05:51:07.514Z,65.34
2017-12-22T05:52:09.975Z,65.14
2017-12-22T05:53:12.430Z,65.24
2017-12-22T05:54:14.908Z,65.22
2017-12-22T05:55:17.386Z,65.25
2017-12-22T05:56:19.884Z,65.26
2017-12-22T05:57:22.339Z,65.37
2017-12-22T05:58:24.797Z,65.19
2017-12-22T05:59:27.273Z,65.32
2017-12-22T06:00:29.908Z,65.35
2017-12-22T06:01:32.389Z,65.31
2017-12-22T06:02:34.869Z,65.27
2017-12-22T06:03:37.339Z,65.24
2017-12-22T06:04:39.794Z,65.17
2017-12-22T06:05:42.272Z,65.19
2017-12-22T06:06:44.726Z,65.17
2017-12-22T06:07:47.195Z,65.18
2017-12-22T06:08:49.654Z,65.21
2017-12-22T06:09:52.110Z,65.21
2017-12-22T06:10:54.585Z,65.20
2017-12-22T06:11:57.064Z,65.19
2017-12-22T06:12:59.631Z,65.17
2017-12-22T06:14:02.105Z,65.29
2017-12-22T06:15:04.580Z,65.26
2017-12-22T06:16:07.057Z,65.38
2017-12-22T06:17:09.515Z,65.39
2017-12-22T06:18:11.975Z,65.43
2017-12-22T06:19:14.452Z,65.43
2017-12-22T06:20:16.925Z,65.41
2017-12-22T06:21:19.383Z,65.47
2017-12-22T06:22:21.860Z,65.51
2017-12-22T06:23:24.319Z,65.50
2017-12-22T06:24:26.787Z,65.21
2017-12-22T06:25:29.264Z,64.67
2017-12-22T06:26:31.744Z,64.00
2017-12-22T06:27:34.215Z,63.66
2017-12-22T06:28:36.714Z,62.28
2017-12-22T06:29:39.178Z,62.40
2017-12-22T06:30:41.634Z,61.83
2017-12-22T06:31:44.114Z,61.53
2017-12-22T06:32:46.582Z,61.38
2017-12-22T06:33:49.042Z,61.23
2017-12-22T06:34:51.503Z,61.26
2017-12-22T06:35:53.981Z,61.20
2017-12-22T06:36:56.574Z,61.28
2017-12-22T06:37:59.067Z,61.58
2017-12-22T06:39:01.548Z,61.55
2017-12-22T06:40:04.028Z,61.68
2017-12-22T06:41:06.737Z,61.88
2017-12-22T06:42:09.338Z,62.06
2017-12-22T06:43:11.845Z,62.23
2017-12-22T06:44:14.321Z,61.76
2017-12-22T06:45:16.800Z,61.64
2017-12-22T06:46:19.266Z,61.51
2017-12-22T06:47:21.744Z,62.01
2017-12-22T06:48:24.220Z,62.19
2017-12-22T06:49:26.692Z,62.45
2017-12-22T06:50:29.371Z,61.79
2017-12-22T06:51:31.885Z,62.26
2017-12-22T06:52:34.418Z,62.09
2017-12-22T06:53:36.890Z,62.02
2017-12-22T06:54:39.346Z,62.03
2017-12-22T06:55:41.854Z,62.17
2017-12-22T06:56:44.304Z,62.05
2017-12-22T06:57:46.781Z,62.05
2017-12-22T06:58:49.260Z,61.93
2017-12-22T06:59:51.726Z,61.59
2017-12-22T07:00:54.187Z,61.59
2017-12-22T07:01:56.647Z,61.42
2017-12-22T07:02:59.124Z,61.45
2017-12-22T07:04:01.601Z,61.34
2017-12-22T07:05:04.058Z,60.85
2017-12-22T07:06:06.514Z,60.55
2017-12-22T07:07:08.971Z,59.89
2017-12-22T07:08:11.427Z,59.46
2017-12-22T07:09:13.896Z,58.79
2017-12-22T07:10:16.351Z,58.64
2017-12-22T07:11:18.874Z,58.23
2017-12-22T07:12:21.306Z,58.20
2017-12-22T07:13:23.771Z,58.14
2017-12-22T07:14:26.226Z,57.95
2017-12-22T07:15:28.710Z,57.76
2017-12-22T07:16:31.179Z,57.73
2017-12-22T07:17:33.659Z,57.77
2017-12-22T07:18:36.174Z,57.38
2017-12-22T07:19:38.648Z,57.31
2017-12-22T07:20:41.102Z,57.23
2017-12-22T07:21:43.578Z,57.08
2017-12-22T07:22:46.034Z,56.98
2017-12-22T07:23:48.494Z,57.08
2017-12-22T07:24:50.965Z,57.05
2017-12-22T07:25:53.422Z,57.29
2017-12-22T07:26:55.878Z,57.47
2017-12-22T07:27:58.357Z,56.89
2017-12-22T07:29:00.818Z,56.98
2017-12-22T07:30:03.282Z,56.91
2017-12-22T07:31:05.757Z,56.92
2017-12-22T07:32:08.228Z,56.86
2017-12-22T07:33:10.686Z,56.83
2017-12-22T07:34:13.167Z,56.88
2017-12-22T07:35:15.651Z,56.90
2017-12-22T07:36:18.120Z,56.55
2017-12-22T07:37:20.597Z,56.10
2017-12-22T07:38:23.064Z,55.88
2017-12-22T07:39:25.522Z,55.72
2017-12-22T07:40:28.931Z,55.59
2017-12-22T07:41:31.403Z,55.45
2017-12-22T07:42:33.862Z,55.54
2017-12-22T07:43:36.337Z,55.60
2017-12-22T07:44:38.799Z,55.66
2017-12-22T07:45:41.272Z,55.51
2017-12-22T07:46:43.749Z,55.49
2017-12-22T07:47:46.206Z,55.49
2017-12-22T07:48:49.741Z,55.43
2017-12-22T07:49:52.216Z,55.39
2017-12-22T07:50:54.676Z,55.43
2017-12-22T07:51:57.154Z,55.44
2017-12-22T07:52:59.616Z,55.48
2017-12-22T07:54:02.075Z,55.65
2017-12-22T07:55:04.535Z,55.76
2017-12-22T07:56:07.005Z,55.94
2017-12-22T07:57:09.464Z,56.04
2017-12-22T07:58:11.938Z,56.29
2017-12-22T07:59:14.417Z,56.45
2017-12-22T08:00:16.884Z,56.63
2017-12-22T08:01:19.343Z,56.70
2017-12-22T08:02:21.816Z,56.86
2017-12-22T08:03:24.272Z,56.98
2017-12-22T08:04:26.761Z,57.05
2017-12-22T08:05:29.217Z,57.14
2017-12-22T08:06:31.690Z,57.21
2017-12-22T08:07:34.150Z,57.30
2017-12-22T08:08:36.618Z,57.39
2017-12-22T08:09:39.097Z,57.51
2017-12-22T08:10:41.554Z,57.70
2017-12-22T08:11:44.014Z,57.89
2017-12-22T08:12:46.494Z,58.05
2017-12-22T08:13:48.958Z,58.11
2017-12-22T08:14:51.433Z,58.17
2017-12-22T08:15:53.939Z,58.17
2017-12-22T08:16:56.417Z,58.19
2017-12-22T08:17:58.870Z,58.24
2017-12-22T08:19:01.333Z,58.19
2017-12-22T08:20:03.805Z,58.28
2017-12-22T08:21:06.270Z,58.43
2017-12-22T08:22:08.730Z,58.52
2017-12-22T08:23:11.200Z,58.63
2017-12-22T08:24:13.662Z,58.68
2017-12-22T08:25:16.140Z,58.70
2017-12-22T08:26:18.612Z,58.73
2017-12-22T08:27:21.079Z,58.76
2017-12-22T08:28:23.573Z,58.77
2017-12-22T08:29:26.035Z,58.79
2017-12-22T08:30:28.534Z,58.81
2017-12-22T08:31:31.005Z,58.85
2017-12-22T08:32:33.465Z,58.89
2017-12-22T08:33:35.924Z,59.06
2017-12-22T08:34:38.389Z,59.25
2017-12-22T08:35:40.855Z,59.31
2017-12-22T08:36:43.319Z,59.34
2017-12-22T08:37:45.801Z,59.42
2017-12-22T08:38:48.276Z,59.67
2017-12-22T08:39:50.746Z,59.64
2017-12-22T08:40:53.220Z,59.66
2017-12-22T08:41:55.715Z,59.27
2017-12-22T08:42:58.192Z,59.16
2017-12-22T08:44:00.668Z,58.97
2017-12-22T08:45:03.145Z,59.44
2017-12-22T08:46:05.622Z,59.46
2017-12-22T08:47:08.093Z,59.63
2017-12-22T08:48:10.613Z,60.27
2017-12-22T08:49:13.086Z,60.06
2017-12-22T08:50:15.550Z,60.06
2017-12-22T08:51:18.011Z,60.00
2017-12-22T08:52:20.479Z,59.89
2017-12-22T08:53:22.948Z,59.76
2017-12-22T08:54:25.411Z,59.50
2017-12-22T08:55:27.870Z,59.36
2017-12-22T08:56:30.348Z,59.52
2017-12-22T08:57:32.829Z,59.50
2017-12-22T08:58:35.290Z,59.50
2017-12-22T08:59:37.764Z,59.50
2017-12-22T09:00:40.226Z,59.54
2017-12-22T09:01:42.687Z,59.53
2017-12-22T09:02:45.160Z,59.67
2017-12-22T09:03:47.634Z,59.73
2017-12-22T09:04:50.162Z,59.66
2017-12-22T09:05:52.663Z,59.64
2017-12-22T09:06:55.149Z,59.53
2017-12-22T09:07:57.687Z,59.41
2017-12-22T09:09:00.188Z,59.20
2017-12-22T09:10:02.665Z,59.05
2017-12-22T09:11:05.145Z,58.91
2017-12-22T09:12:07.611Z,58.81
2017-12-22T09:13:10.120Z,58.65
2017-12-22T09:14:12.596Z,58.62
2017-12-22T09:15:15.124Z,58.54
2017-12-22T09:16:17.655Z,58.50
2017-12-22T09:17:20.115Z,58.43
2017-12-22T09:18:22.626Z,58.34
2017-12-22T09:19:25.091Z,58.31
2017-12-22T09:20:27.575Z,58.30
2017-12-22T09:21:30.088Z,58.28
2017-12-22T09:22:32.536Z,58.19
2017-12-22T09:23:35.001Z,58.19
2017-12-22T09:24:37.554Z,58.15
2017-12-22T09:25:40.038Z,58.16
2017-12-22T09:26:43.697Z,58.08
2017-12-22T09:27:46.244Z,58.09
2017-12-22T09:28:48.735Z,58.08
2017-12-22T09:29:51.227Z,58.08
2017-12-22T09:30:53.721Z,58.06
2017-12-22T09:31:56.196Z,58.03
2017-12-22T09:32:58.658Z,58.00
2017-12-22T09:34:01.139Z,57.98
2017-12-22T09:35:03.673Z,57.98
2017-12-22T09:36:06.160Z,57.96
2017-12-22T09:37:08.636Z,57.95
2017-12-22T09:38:11.125Z,57.95
2017-12-22T09:39:13.606Z,57.92
2017-12-22T09:40:16.089Z,57.91
2017-12-22T09:41:18.608Z,57.91
2017-12-22T09:42:21.088Z,57.91
2017-12-22T09:43:23.567Z,57.88
2017-12-22T09:44:26.042Z,57.87
2017-12-22T09:45:28.532Z,57.83
2017-12-22T09:46:31.101Z,57.82
2017-12-22T09:47:33.568Z,57.81
2017-12-22T09:48:36.027Z,57.77
2017-12-22T09:49:38.500Z,57.77
2017-12-22T09:50:40.973Z,57.74
2017-12-22T09:51:43.461Z,57.75
2017-12-22T09:52:45.969Z,57.72
2017-12-22T09:53:48.446Z,57.70
2017-12-22T09:54:50.928Z,57.69
2017-12-22T09:55:53.420Z,57.68
2017-12-22T09:56:55.894Z,57.65
2017-12-22T09:57:58.366Z,57.66
2017-12-22T09:59:00.912Z,57.65
2017-12-22T10:00:03.375Z,57.62
2017-12-22T10:01:05.912Z,57.64
2017-12-22T10:02:08.399Z,57.62
2017-12-22T10:03:10.906Z,57.61
2017-12-22T10:04:13.372Z,57.61
2017-12-22T10:05:15.868Z,57.62
2017-12-22T10:06:18.347Z,57.62
2017-12-22T10:07:20.837Z,57.63
2017-12-22T10:08:23.317Z,57.62
2017-12-22T10:09:25.813Z,57.61
2017-12-22T10:10:28.299Z,57.58
2017-12-22T10:11:30.780Z,57.57
2017-12-22T10:12:33.258Z,57.57
2017-12-22T10:13:35.752Z,57.57
2017-12-22T10:14:38.237Z,57.56
2017-12-22T10:15:40.695Z,57.56
2017-12-22T10:16:43.184Z,57.55
2017-12-22T10:17:45.729Z,57.56
2017-12-22T10:18:48.206Z,57.56
2017-12-22T10:19:50.749Z,57.52
2017-12-22T10:20:53.269Z,57.51
2017-12-22T10:21:55.757Z,57.51
2017-12-22T10:22:58.220Z,57.52
2017-12-22T10:24:00.705Z,57.48
2017-12-22T10:25:03.210Z,57.49
2017-12-22T10:26:05.705Z,57.48
2017-12-22T10:27:08.166Z,57.49
2017-12-22T10:28:10.630Z,57.46
2017-12-22T10:29:13.094Z,57.44
2017-12-22T10:30:15.557Z,57.44
2017-12-22T10:31:18.034Z,57.46
2017-12-22T10:32:20.521Z,57.46
2017-12-22T10:33:22.996Z,57.44
2017-12-22T10:34:25.459Z,57.42
2017-12-22T10:35:27.918Z,57.41
2017-12-22T10:36:30.397Z,57.41
2017-12-22T10:37:32.884Z,57.42
2017-12-22T10:38:35.364Z,57.41
2017-12-22T10:39:37.845Z,57.42
2017-12-22T10:40:40.317Z,57.39
2017-12-22T10:41:42.770Z,57.38
2017-12-22T10:42:45.269Z,57.37
2017-12-22T10:43:47.726Z,57.38
2017-12-22T10:44:50.204Z,57.37
2017-12-22T10:45:52.684Z,57.36
2017-12-22T10:46:55.190Z,57.34
2017-12-22T10:47:57.683Z,57.36
2017-12-22T10:49:00.157Z,57.36
2017-12-22T10:50:02.637Z,57.35
2017-12-22T10:51:05.098Z,57.33
2017-12-22T10:52:07.571Z,57.32
2017-12-22T10:53:10.069Z,57.33
2017-12-22T10:54:12.531Z,57.35
2017-12-22T10:55:14.986Z,57.34
2017-12-22T10:56:17.475Z,57.34
2017-12-22T10:57:19.936Z,57.33
2017-12-22T10:58:22.442Z,57.32
2017-12-22T10:59:24.923Z,57.34
2017-12-22T11:00:28.317Z,57.32
2017-12-22T11:01:30.786Z,57.32
2017-12-22T11:02:33.280Z,57.32
2017-12-22T11:03:35.802Z,57.30
2017-12-22T11:04:38.279Z,57.25
2017-12-22T11:05:40.734Z,57.28
2017-12-22T11:06:43.195Z,57.29
2017-12-22T11:07:45.669Z,57.24
2017-12-22T11:08:48.248Z,57.26
2017-12-22T11:09:50.721Z,57.25
2017-12-22T11:10:53.179Z,57.25
2017-12-22T11:11:55.756Z,57.25
2017-12-22T11:12:58.240Z,57.23
2017-12-22T11:14:00.722Z,57.23
2017-12-22T11:15:03.198Z,57.21
2017-12-22T11:16:05.669Z,57.23
2017-12-22T11:17:08.134Z,57.22
2017-12-22T11:18:10.608Z,57.20
2017-12-22T11:19:14.027Z,57.21
2017-12-22T11:20:16.508Z,57.18
2017-12-22T11:21:18.968Z,57.18
2017-12-22T11:22:21.430Z,57.20
2017-12-22T11:23:23.906Z,57.16
2017-12-22T11:24:26.477Z,57.16
2017-12-22T11:25:28.947Z,57.15
2017-12-22T11:26:31.420Z,57.16
2017-12-22T11:27:33.878Z,57.15
2017-12-22T11:28:36.349Z,57.16
2017-12-22T11:29:38.849Z,57.17
2017-12-22T11:30:41.320Z,57.16
2017-12-22T11:31:43.806Z,57.14
2017-12-22T11:32:46.263Z,57.14
2017-12-22T11:33:49.576Z,57.13
2017-12-22T11:34:52.069Z,57.09
2017-12-22T11:35:54.533Z,57.13
2017-12-22T11:36:57.007Z,57.13
2017-12-22T11:37:59.475Z,57.12
2017-12-22T11:39:01.961Z,57.13
2017-12-22T11:40:04.460Z,57.13
2017-12-22T11:41:06.942Z,57.13
2017-12-22T11:42:09.403Z,57.12
2017-12-22T11:43:11.892Z,57.13
2017-12-22T11:44:14.381Z,57.13
2017-12-22T11:45:16.876Z,57.13
2017-12-22T11:46:19.355Z,57.11
2017-12-22T11:47:21.836Z,57.12
2017-12-22T11:48:24.294Z,57.12
2017-12-22T11:49:26.750Z,57.12
2017-12-22T11:50:29.233Z,57.12
2017-12-22T11:51:31.686Z,57.09
2017-12-22T11:52:34.142Z,57.09
2017-12-22T11:53:36.617Z,57.08
2017-12-22T11:54:39.237Z,57.08
2017-12-22T11:55:41.733Z,57.06
2017-12-22T11:56:44.225Z,57.10
2017-12-22T11:57:46.683Z,57.09
2017-12-22T11:58:49.157Z,57.07
2017-12-22T11:59:51.614Z,57.06
2017-12-22T12:00:54.098Z,57.01
2017-12-22T12:01:56.554Z,57.03
2017-12-22T12:02:59.011Z,57.02
2017-12-22T12:04:01.542Z,57.03
2017-12-22T12:05:04.060Z,57.02
2017-12-22T12:06:06.539Z,57.02
2017-12-22T12:07:09.016Z,57.01
2017-12-22T12:08:11.478Z,57.01
2017-12-22T12:09:13.991Z,57.01
2017-12-22T12:10:16.431Z,57.01
2017-12-22T12:11:18.909Z,56.97
2017-12-22T12:12:21.384Z,56.99
2017-12-22T12:13:23.873Z,56.97
2017-12-22T12:14:26.331Z,56.97
2017-12-22T12:15:28.804Z,56.96
2017-12-22T12:16:31.278Z,56.98
2017-12-22T12:17:33.748Z,56.98
2017-12-22T12:18:36.221Z,56.96
2017-12-22T12:19:38.689Z,56.98
2017-12-22T12:20:41.142Z,56.96
2017-12-22T12:21:43.842Z,56.96
2017-12-22T12:22:46.298Z,56.96
2017-12-22T12:23:48.784Z,56.94
2017-12-22T12:24:51.260Z,56.92
2017-12-22T12:25:53.732Z,56.93
2017-12-22T12:26:56.186Z,56.93
2017-12-22T12:27:58.665Z,56.92
2017-12-22T12:29:01.123Z,56.91
2017-12-22T12:30:03.605Z,56.91
2017-12-22T12:31:06.067Z,56.92
2017-12-22T12:32:08.526Z,56.89
2017-12-22T12:33:11.044Z,56.90
2017-12-22T12:34:13.485Z,56.90
2017-12-22T12:35:15.956Z,56.88
2017-12-22T12:36:18.574Z,56.88
2017-12-22T12:37:21.035Z,56.90
2017-12-22T12:38:23.491Z,56.90
2017-12-22T12:39:25.952Z,56.88
2017-12-22T12:40:28.448Z,56.90
2017-12-22T12:41:30.949Z,56.88
2017-12-22T12:42:33.444Z,56.93
2017-12-22T12:43:35.903Z,56.90
2017-12-22T12:44:38.380Z,56.87
2017-12-22T12:45:40.851Z,56.89
2017-12-22T12:46:43.328Z,56.86
2017-12-22T12:47:45.824Z,56.84
2017-12-22T12:48:48.312Z,56.86
2017-12-22T12:49:50.788Z,56.86
2017-12-22T12:50:53.254Z,56.87
2017-12-22T12:51:55.711Z,56.85
2017-12-22T12:52:58.167Z,56.85
2017-12-22T12:54:00.640Z,56.85
2017-12-22T12:55:03.098Z,56.84
2017-12-22T12:56:05.573Z,56.84
2017-12-22T12:57:08.056Z,56.86
2017-12-22T12:58:10.515Z,56.85
2017-12-22T12:59:13.054Z,56.83
2017-12-22T13:00:15.539Z,56.84
2017-12-22T13:01:18.008Z,56.84
2017-12-22T13:02:20.463Z,56.82
2017-12-22T13:03:22.923Z,56.81
2017-12-22T13:04:25.392Z,56.82
2017-12-22T13:05:27.860Z,56.82
2017-12-22T13:06:30.333Z,56.83
2017-12-22T13:07:32.821Z,56.83
2017-12-22T13:08:35.296Z,56.82
2017-12-22T13:09:37.754Z,56.82
2017-12-22T13:10:40.244Z,56.83
2017-12-22T13:11:42.749Z,56.84
2017-12-22T13:12:45.231Z,56.78
2017-12-22T13:13:47.716Z,56.79
2017-12-22T13:14:50.202Z,56.82
2017-12-22T13:15:52.686Z,56.79
2017-12-22T13:16:55.192Z,56.78
2017-12-22T13:17:57.655Z,56.77
2017-12-22T13:19:00.218Z,56.79
2017-12-22T13:20:02.696Z,56.77
2017-12-22T13:21:05.211Z,56.78
2017-12-22T13:22:07.681Z,56.73
2017-12-22T13:23:10.140Z,56.75
2017-12-22T13:24:12.602Z,56.74
2017-12-22T13:25:15.082Z,56.75